• Join FlightAware (Why Join?)
  • Login
  • US Flag 
11:38AM EST


 

Airport Tracker/Info


-or-


 

Live Flight TrackerFlight Track Log ✈ N1926A ✈ 25-Jun-2013 ✈ KEYE - KEKX

Flight Track Log - Related Links

Times and Time Zones

All times are in EDT time to prevent confusion due to time zone crossing. See the N1926A flight status page for this flight to view local times or setup timezone preferences in your user account.

Time Position Orientation Groundspeed Altitude Reporting Facility
EDT Latitude Longitude Course Direction KTS MPH feet Rate Location/Type
02:57PM 39.8167 -86.3000 237° Southwest 125 144 1,500  Level Indianapolis TRACON
02:58PM 39.8000 -86.3333 237° Southwest 159 183 2,600 1,500 Climbing Indianapolis TRACON
02:59PM 39.7953 -86.3894 264° West 170 196 4,200 1,680 Climbing Indianapolis Center
03:00PM 39.7608 -86.4322 224° Southwest 174 200 6,000 840 Climbing Indianapolis Center
03:01PM 39.7022 -86.4372 184° South 226 260 6,000  Level Indianapolis Center
03:02PM 39.6219 -86.4200 171° South 250 288 6,000  Level Indianapolis Center
03:03PM 39.5531 -86.4300 186° South 252 290 6,000 660 Level Indianapolis Center
03:04PM 39.4894 -86.4397 187° South 240 276 7,400 1,200 Climbing Indianapolis Center
03:05PM 39.4342 -86.4217 166° South 221 254 8,600 1,140 Climbing Indianapolis Center
03:06PM 39.3747 -86.3942 160° South 225 259 9,800 1,080 Climbing Indianapolis Center
03:07PM 39.3019 -86.3653 163° South 228 262 10,900 960 Climbing Indianapolis Center
03:08PM 39.2411 -86.3458 166° South 227 261 11,900 900 Climbing Indianapolis Center
03:09PM 39.1775 -86.3275 167° South 231 266 12,800 480 Climbing Indianapolis Center
03:10PM 39.1097 -86.3089 168° South 246 283 12,900  Climbing Indianapolis Center
03:11PM 39.0383 -86.2869 167° South 260 299 12,900  Level Indianapolis Center
03:12PM 38.9681 -86.2742 172° South 258 297 12,900  Level Indianapolis Center
03:13PM 38.8842 -86.2683 179° South 253 291 12,900  Level Indianapolis Center
03:14PM 38.8225 -86.2619 175° South 253 291 13,000  Climbing Indianapolis Center
03:15PM 38.7386 -86.2514 174° South 251 289 13,000  Level Indianapolis Center
03:16PM 38.6689 -86.2436 175° South 250 288 13,000 -240 Level Indianapolis Center
03:17PM 38.5978 -86.2344 174° South 253 291 12,600 -600 Descending Indianapolis Center
03:18PM 38.5217 -86.2253 175° South 267 307 11,800 -720 Descending Indianapolis Center
03:19PM 38.4494 -86.1958 162° South 270 311 11,200 -660 Descending Indianapolis Center
03:20PM 38.3772 -86.1661 162° South 271 312 10,500 -780 Descending Indianapolis Center
03:21PM 38.3064 -86.1375 162° South 267 307 9,700 -1,020 Descending Indianapolis Center
03:22PM 38.2353 -86.1086 162° South 267 307 8,400 -1,380 Descending Indianapolis Center
03:24PM 38.1486 -86.0786 165° South 266 306 6,900 -2,160 Descending Indianapolis Center
03:25PM 38.0806 -86.0583 167° South 258 297 3,900 -1,920 Descending Indianapolis Center
03:26PM 38.0161 -86.0403 168° South 249 287 3,000 -480 Descending Indianapolis Center
03:27PM 37.9589 -86.0253 168° South 231 266 3,000  Level Indianapolis Center
03:28PM 37.9017 -86.0050 164° South 221 254 3,000  Level Indianapolis Center
03:29PM 37.8431 -85.9833 164° South 219 252 3,000  Level Indianapolis Center
03:30PM 37.7881 -85.9653 165° South 212 244 3,000 -180 Level Indianapolis Center
03:31PM 37.7269 -85.9447 165° South 208 239 2,700 -300 Descending Indianapolis Center
03:33PM 37.6833 -85.9167 158° South  Level FlightAware Approximate
03:40PM 37.6860 -85.9250 158° South  Level Estimated
03:41PM 37.6833 -85.9167 158° South  Level FlightAware Approximate